Time;durP1;ratioP1;P1;durP2;ratioP2;P2;SDS_P1;SDS_P2;PMS_P1;PMS_P2;Temp;Humidity;BMP_temperature;BMP_pressure;BME280_temperature;BME280_humidity;BME280_pressure;Samples;Min_cycle;Max_cycle;Signal;HPM_P1;HPM_P2
2021/06/02 00:02:15;;;;;;;7.57;2.83;;;;;;;;;;10515672;28;20219;-67
2021/06/02 00:07:21;;;;;;;6.27;2.80;;;;;;;;;;10514501;28;20358;-68
2021/06/02 00:12:23;;;;;;;6.57;2.90;;;;;;;;;;10527237;28;20332;-67
2021/06/02 00:17:25;;;;;;;6.17;3.10;;;;;;;;;;10520272;28;20608;-68
2021/06/02 00:22:29;;;;;;;7.00;2.80;;;;;;;;;;10527566;28;20214;-67
2021/06/02 00:27:31;;;;;;;7.73;3.63;;;;;;;;;;10525641;28;20717;-68
2021/06/02 00:32:34;;;;;;;6.10;3.07;;;;;;;;;;10520407;28;20299;-66
2021/06/02 00:37:40;;;;;;;6.33;2.80;;;;;;;;;;10520433;28;20381;-66
2021/06/02 00:42:42;;;;;;;7.73;3.00;;;;;;;;;;10516516;28;20250;-68
2021/06/02 00:47:44;;;;;;;6.60;3.07;;;;;;;;;;10522754;28;20204;-67
2021/06/02 00:52:48;;;;;;;7.47;3.40;;;;;;;;;;10523781;28;20281;-67
2021/06/02 00:57:53;;;;;;;7.90;3.30;;;;;;;;;;10525948;28;20618;-66
2021/06/02 01:02:57;;;;;;;7.13;2.93;;;;;;;;;;10520509;28;20219;-67
2021/06/02 01:08:02;;;;;;;7.23;3.40;;;;;;;;;;10523548;28;20249;-67
2021/06/02 01:13:07;;;;;;;6.57;3.60;;;;;;;;;;10519680;28;20292;-66
2021/06/02 01:18:09;;;;;;;6.40;3.10;;;;;;;;;;10524503;28;20279;-66
2021/06/02 01:23:13;;;;;;;8.33;3.70;;;;;;;;;;10518514;28;20239;-67
2021/06/02 01:28:15;;;;;;;7.37;3.57;;;;;;;;;;10527091;28;20278;-67
2021/06/02 01:33:38;;;;;;;5.53;3.37;;;;;;;;;;10515340;28;20235;-67
2021/06/02 01:39:10;;;;;;;8.47;3.33;;;;;;;;;;10511477;28;20670;-68
2021/06/02 01:44:27;;;;;;;7.17;3.30;;;;;;;;;;10516655;28;20214;-67
2021/06/02 01:49:41;;;;;;;9.43;3.57;;;;;;;;;;10525148;28;20219;-67
2021/06/02 01:55:01;;;;;;;7.43;3.77;;;;;;;;;;10518006;28;20243;-66
2021/06/02 02:00:10;;;;;;;7.33;4.10;;;;;;;;;;10522901;28;20192;-67
2021/06/02 02:05:23;;;;;;;8.90;4.07;;;;;;;;;;10521249;28;20212;-66
2021/06/02 02:10:43;;;;;;;6.90;3.87;;;;;;;;;;10516786;28;20221;-67
2021/06/02 02:15:52;;;;;;;8.57;4.00;;;;;;;;;;10512282;28;20239;-67
2021/06/02 02:21:02;;;;;;;8.37;4.20;;;;;;;;;;10524914;28;20241;-67
2021/06/02 02:26:16;;;;;;;7.23;4.40;;;;;;;;;;10524195;28;20230;-67
2021/06/02 02:31:40;;;;;;;8.23;4.57;;;;;;;;;;10526768;28;20669;-67
2021/06/02 02:36:44;;;;;;;7.43;3.90;;;;;;;;;;10487683;28;20798;-66
2021/06/02 02:41:51;;;;;;;8.70;4.07;;;;;;;;;;10522084;28;20191;-67
2021/06/02 02:46:55;;;;;;;8.17;4.17;;;;;;;;;;10532275;28;20219;-67
2021/06/02 02:52:02;;;;;;;9.57;4.00;;;;;;;;;;10529505;28;20665;-68
2021/06/02 02:57:13;;;;;;;8.47;4.00;;;;;;;;;;10533051;28;20218;-67
2021/06/02 03:02:17;;;;;;;7.90;3.90;;;;;;;;;;10527568;28;20192;-68
2021/06/02 03:07:21;;;;;;;10.00;4.40;;;;;;;;;;10531622;28;20243;-66
2021/06/02 03:12:30;;;;;;;10.03;4.83;;;;;;;;;;10521627;28;20238;-67
2021/06/02 03:17:34;;;;;;;10.87;4.53;;;;;;;;;;10530345;28;20226;-67
2021/06/02 03:22:46;;;;;;;8.40;4.20;;;;;;;;;;10524551;28;20353;-69
2021/06/02 03:28:05;;;;;;;8.57;4.30;;;;;;;;;;10525443;28;20250;-69
2021/06/02 03:33:24;;;;;;;9.27;4.50;;;;;;;;;;10528136;28;20247;-66
2021/06/02 03:38:35;;;;;;;9.30;4.30;;;;;;;;;;10522222;28;20194;-67
2021/06/02 03:43:40;;;;;;;9.27;4.37;;;;;;;;;;10525192;28;20223;-67
2021/06/02 03:48:49;;;;;;;9.00;4.10;;;;;;;;;;10521826;28;20188;-67
2021/06/02 03:53:54;;;;;;;10.27;4.83;;;;;;;;;;10530155;28;20235;-67
2021/06/02 03:59:02;;;;;;;8.67;4.57;;;;;;;;;;10522475;28;20699;-67
2021/06/02 04:04:05;;;;;;;8.87;4.20;;;;;;;;;;10522642;28;20277;-67
2021/06/02 04:09:11;;;;;;;7.80;4.40;;;;;;;;;;10516566;28;20244;-67
2021/06/02 04:14:28;;;;;;;9.37;4.57;;;;;;;;;;10530346;28;20204;-67
2021/06/02 04:19:50;;;;;;;8.83;4.03;;;;;;;;;;10518714;28;20207;-67
2021/06/02 04:25:13;;;;;;;7.33;4.20;;;;;;;;;;10528461;28;20242;-66
2021/06/02 04:30:17;;;;;;;9.13;4.37;;;;;;;;;;10523078;28;20198;-65
2021/06/02 04:35:20;;;;;;;9.03;4.20;;;;;;;;;;10526026;28;20222;-66
2021/06/02 04:40:22;;;;;;;11.43;4.40;;;;;;;;;;10521154;28;20312;-66
2021/06/02 04:45:29;;;;;;;10.00;4.27;;;;;;;;;;10525826;28;20303;-67
2021/06/02 04:50:37;;;;;;;7.83;3.60;;;;;;;;;;10526249;28;20195;-67
2021/06/02 04:55:51;;;;;;;7.33;3.53;;;;;;;;;;10525593;28;20243;-67
2021/06/02 05:01:12;;;;;;;7.33;3.80;;;;;;;;;;10520320;28;20202;-67
2021/06/02 05:06:35;;;;;;;7.03;3.40;;;;;;;;;;10525145;28;20292;-68
2021/06/02 05:11:52;;;;;;;7.90;3.70;;;;;;;;;;10522217;28;20218;-66
2021/06/02 05:17:12;;;;;;;8.73;3.57;;;;;;;;;;10524031;28;20282;-66
2021/06/02 05:22:39;;;;;;;6.90;3.53;;;;;;;;;;10520892;28;20199;-66
2021/06/02 05:28:08;;;;;;;10.93;3.90;;;;;;;;;;10521826;28;20207;-67
2021/06/02 05:33:29;;;;;;;7.43;3.60;;;;;;;;;;10470739;28;20223;-68
2021/06/02 05:38:42;;;;;;;7.97;3.87;;;;;;;;;;10522267;28;20191;-67
2021/06/02 05:44:05;;;;;;;6.80;3.80;;;;;;;;;;10515866;28;20223;-66
2021/06/02 05:49:32;;;;;;;8.33;4.37;;;;;;;;;;10508240;28;20801;-67
2021/06/02 05:54:51;;;;;;;10.37;4.03;;;;;;;;;;10523719;28;20244;-67
2021/06/02 06:00:20;;;;;;;8.23;4.40;;;;;;;;;;10516201;28;20555;-67
2021/06/02 06:05:26;;;;;;;7.83;4.10;;;;;;;;;;10514468;28;20219;-67
2021/06/02 06:10:43;;;;;;;8.77;4.37;;;;;;;;;;10531738;28;22564;-67
2021/06/02 06:16:03;;;;;;;9.17;4.00;;;;;;;;;;10519318;28;20257;-67
2021/06/02 06:21:18;;;;;;;10.40;4.03;;;;;;;;;;10521198;28;20195;-67
2021/06/02 06:26:22;;;;;;;7.43;3.83;;;;;;;;;;10523919;28;20266;-67
2021/06/02 06:31:26;;;;;;;9.07;3.90;;;;;;;;;;10527522;28;20219;-68
2021/06/02 06:36:31;;;;;;;8.20;3.83;;;;;;;;;;10525190;28;20258;-67
2021/06/02 06:41:34;;;;;;;10.60;3.93;;;;;;;;;;10527146;28;20187;-67
2021/06/02 06:46:36;;;;;;;8.90;3.50;;;;;;;;;;10520561;28;20335;-68
2021/06/02 06:51:41;;;;;;;8.00;3.47;;;;;;;;;;10529938;28;20628;-67
2021/06/02 06:56:44;;;;;;;9.13;3.57;;;;;;;;;;10525360;28;20212;-66
2021/06/02 07:01:47;;;;;;;6.83;3.53;;;;;;;;;;10523228;28;20307;-67
2021/06/02 07:06:50;;;;;;;7.93;3.60;;;;;;;;;;10537791;27;20224;-68
2021/06/02 07:11:54;;;;;;;8.33;3.53;;;;;;;;;;10517086;28;20203;-67
2021/06/02 07:16:57;;;;;;;8.97;3.33;;;;;;;;;;10525211;28;20292;-68
2021/06/02 07:22:02;;;;;;;8.17;3.57;;;;;;;;;;10519325;28;20206;-66
2021/06/02 07:27:04;;;;;;;8.43;3.80;;;;;;;;;;10518665;28;20768;-66
2021/06/02 07:32:06;;;;;;;8.30;3.50;;;;;;;;;;10527182;28;20203;-66
2021/06/02 07:37:09;;;;;;;6.73;3.30;;;;;;;;;;10522197;28;20235;-67
2021/06/02 07:42:12;;;;;;;8.37;3.70;;;;;;;;;;10521352;28;20199;-66
2021/06/02 07:47:13;;;;;;;7.43;3.23;;;;;;;;;;10522606;28;20239;-67
2021/06/02 07:52:31;;;;;;;7.57;3.33;;;;;;;;;;10518873;28;20218;-66
2021/06/02 07:57:33;;;;;;;8.23;3.73;;;;;;;;;;10513665;28;20199;-66
2021/06/02 08:02:35;;;;;;;8.73;3.22;;;;;;;;;;10514179;28;20628;-67
2021/06/02 08:07:38;;;;;;;5.20;3.30;;;;;;;;;;10523393;28;20203;-68
2021/06/02 08:12:41;;;;;;;10.43;4.28;;;;;;;;;;10519127;28;20220;-66
2021/06/02 08:17:44;;;;;;;5.28;3.20;;;;;;;;;;10516733;28;20212;-66
2021/06/02 08:22:48;;;;;;;8.07;3.72;;;;;;;;;;10521464;28;20212;-67
2021/06/02 08:27:50;;;;;;;8.88;3.75;;;;;;;;;;10525783;28;20314;-67
2021/06/02 08:32:53;;;;;;;5.82;3.47;;;;;;;;;;10516527;28;20811;-68
2021/06/02 08:37:57;;;;;;;7.03;3.40;;;;;;;;;;10516153;28;20250;-67
2021/06/02 08:42:59;;;;;;;5.68;3.53;;;;;;;;;;10517900;28;20294;-69
2021/06/02 08:48:02;;;;;;;6.50;3.58;;;;;;;;;;10516427;28;20211;-67
2021/06/02 08:53:06;;;;;;;6.88;3.35;;;;;;;;;;10518909;28;20211;-69
2021/06/02 08:58:08;;;;;;;6.90;3.63;;;;;;;;;;10521114;28;20346;-68
2021/06/02 09:03:10;;;;;;;4.22;3.20;;;;;;;;;;10520817;28;20223;-67
2021/06/02 09:08:15;;;;;;;6.55;3.45;;;;;;;;;;10519223;28;20256;-66
2021/06/02 09:13:18;;;;;;;5.82;3.13;;;;;;;;;;10514379;28;20293;-68
2021/06/02 09:18:21;;;;;;;7.88;3.45;;;;;;;;;;10516901;28;20203;-68
2021/06/02 09:23:28;;;;;;;6.95;3.25;;;;;;;;;;10524362;28;20247;-68
2021/06/02 09:28:44;;;;;;;5.35;3.35;;;;;;;;;;10522709;28;20192;-68
2021/06/02 09:33:47;;;;;;;6.20;3.50;;;;;;;;;;10522078;28;20226;-67
2021/06/02 09:38:53;;;;;;;5.90;3.75;;;;;;;;;;10521376;28;20253;-68
2021/06/02 09:43:56;;;;;;;7.03;2.90;;;;;;;;;;10518856;28;20241;-68
2021/06/02 09:49:00;;;;;;;10.10;3.88;;;;;;;;;;10517466;28;20276;-68
2021/06/02 09:54:04;;;;;;;6.05;3.47;;;;;;;;;;10515180;28;20291;-68
2021/06/02 09:59:08;;;;;;;6.10;3.85;;;;;;;;;;10511458;28;20213;-68
2021/06/02 10:04:11;;;;;;;7.47;3.72;;;;;;;;;;10520497;28;20241;-66
2021/06/02 10:09:14;;;;;;;7.13;4.10;;;;;;;;;;10516807;28;20183;-68
2021/06/02 10:14:16;;;;;;;7.65;3.88;;;;;;;;;;10520544;28;20218;-67
2021/06/02 10:19:33;;;;;;;7.07;3.72;;;;;;;;;;10516753;28;20239;-69
2021/06/02 10:24:37;;;;;;;6.30;3.65;;;;;;;;;;10521519;28;20215;-68
2021/06/02 10:29:39;;;;;;;7.25;3.72;;;;;;;;;;10513176;28;20219;-68
2021/06/02 10:34:41;;;;;;;7.70;4.97;;;;;;;;;;10518600;28;20375;-68
2021/06/02 10:39:47;;;;;;;7.15;4.50;;;;;;;;;;10508083;28;20211;-69
2021/06/02 10:44:52;;;;;;;7.03;4.30;;;;;;;;;;10513599;28;20708;-69
2021/06/02 10:49:54;;;;;;;9.40;5.07;;;;;;;;;;10516684;28;20335;-68
2021/06/02 10:54:57;;;;;;;8.13;4.18;;;;;;;;;;10524809;28;20561;-70
2021/06/02 11:00:09;;;;;;;7.07;4.10;;;;;;;;;;10522235;28;20283;-68
2021/06/02 11:05:15;;;;;;;6.30;3.83;;;;;;;;;;10536763;28;20226;-69
2021/06/02 11:10:18;;;;;;;5.88;3.85;;;;;;;;;;10526411;28;20199;-68
2021/06/02 11:15:22;;;;;;;5.05;3.70;;;;;;;;;;10520536;28;20215;-68
2021/06/02 11:20:38;;;;;;;6.75;3.85;;;;;;;;;;10524811;28;20214;-68
2021/06/02 11:25:42;;;;;;;4.85;3.50;;;;;;;;;;10527728;28;20203;-68
2021/06/02 11:30:44;;;;;;;5.35;3.72;;;;;;;;;;10523655;28;20252;-69
2021/06/02 11:36:08;;;;;;;5.63;3.60;;;;;;;;;;10520336;28;20694;-68
2021/06/02 11:41:12;;;;;;;5.20;3.60;;;;;;;;;;10517868;28;20219;-69
2021/06/02 11:46:44;;;;;;;5.75;3.47;;;;;;;;;;10520521;28;20889;-69
2021/06/02 11:51:46;;;;;;;5.80;3.47;;;;;;;;;;10513239;28;20196;-69
2021/06/02 11:56:50;;;;;;;3.40;2.80;;;;;;;;;;10517678;28;20240;-67
2021/06/02 12:01:52;;;;;;;4.65;3.40;;;;;;;;;;10520616;28;20204;-67
2021/06/02 12:06:54;;;;;;;5.63;3.30;;;;;;;;;;10523104;28;20256;-68
2021/06/02 12:11:57;;;;;;;4.47;3.47;;;;;;;;;;10525247;28;20415;-67
2021/06/02 12:17:00;;;;;;;6.57;3.20;;;;;;;;;;10524441;28;20598;-70
2021/06/02 12:22:10;;;;;;;3.63;2.65;;;;;;;;;;10518257;28;20564;-68
2021/06/02 12:27:16;;;;;;;4.07;2.75;;;;;;;;;;10527065;28;20564;-69
2021/06/02 12:32:18;;;;;;;6.40;3.00;;;;;;;;;;10522658;28;20184;-68
2021/06/02 12:37:20;;;;;;;8.18;4.85;;;;;;;;;;10517379;28;20212;-67
2021/06/02 12:42:24;;;;;;;8.00;3.40;;;;;;;;;;10518228;28;20208;-68
2021/06/02 12:47:26;;;;;;;4.32;3.00;;;;;;;;;;10524572;28;20216;-67
2021/06/02 12:52:28;;;;;;;6.70;3.33;;;;;;;;;;10523254;28;20198;-68
2021/06/02 12:57:32;;;;;;;7.28;4.53;;;;;;;;;;10528727;28;20212;-66
2021/06/02 13:02:35;;;;;;;5.85;3.13;;;;;;;;;;10525703;28;20187;-68
2021/06/02 13:07:37;;;;;;;4.60;3.03;;;;;;;;;;10522948;28;20607;-67
2021/06/02 13:13:01;;;;;;;4.30;2.78;;;;;;;;;;10518624;28;20226;-68
2021/06/02 13:18:04;;;;;;;9.02;6.22;;;;;;;;;;10521631;28;20697;-67
2021/06/02 13:23:11;;;;;;;8.18;4.22;;;;;;;;;;10519074;28;20302;-67
2021/06/02 13:28:21;;;;;;;7.53;3.63;;;;;;;;;;10518096;28;20237;-67
2021/06/02 13:33:23;;;;;;;5.75;3.40;;;;;;;;;;10516364;28;20216;-68
2021/06/02 13:38:25;;;;;;;4.47;2.80;;;;;;;;;;10518674;28;20356;-67
2021/06/02 13:43:38;;;;;;;6.85;3.08;;;;;;;;;;10528748;28;20215;-68
2021/06/02 13:48:48;;;;;;;5.93;3.40;;;;;;;;;;10512708;28;20191;-67
2021/06/02 13:54:01;;;;;;;5.38;2.78;;;;;;;;;;10518713;28;20347;-68
2021/06/02 13:59:08;;;;;;;5.70;3.20;;;;;;;;;;10516075;28;20204;-67
2021/06/02 14:04:10;;;;;;;6.65;3.40;;;;;;;;;;10518613;28;20211;-67
2021/06/02 14:09:12;;;;;;;5.45;3.15;;;;;;;;;;10507345;28;20202;-67
2021/06/02 14:14:18;;;;;;;7.88;2.95;;;;;;;;;;10516637;28;20235;-69
2021/06/02 14:19:20;;;;;;;5.80;3.13;;;;;;;;;;10515546;28;20212;-68
2021/06/02 14:24:23;;;;;;;5.90;2.80;;;;;;;;;;10513072;28;20265;-70
2021/06/02 14:29:27;;;;;;;6.40;3.20;;;;;;;;;;10521167;28;20227;-69
2021/06/02 14:34:30;;;;;;;6.95;2.83;;;;;;;;;;10529031;28;20216;-68
2021/06/02 14:39:32;;;;;;;6.82;3.50;;;;;;;;;;10515355;28;20295;-67
2021/06/02 14:44:35;;;;;;;5.53;3.20;;;;;;;;;;10528577;28;20224;-67
2021/06/02 14:49:37;;;;;;;6.85;2.58;;;;;;;;;;10524727;28;20196;-69
2021/06/02 14:54:39;;;;;;;4.22;2.47;;;;;;;;;;10529136;28;20215;-69
2021/06/02 14:59:42;;;;;;;3.42;2.30;;;;;;;;;;10525656;28;20710;-67
2021/06/02 15:04:45;;;;;;;3.97;2.40;;;;;;;;;;10528043;28;20270;-70
2021/06/02 15:09:47;;;;;;;6.78;3.85;;;;;;;;;;10527287;28;20207;-67
2021/06/02 15:14:50;;;;;;;7.40;3.10;;;;;;;;;;10520662;28;20224;-67
2021/06/02 15:19:52;;;;;;;5.60;2.80;;;;;;;;;;10526456;28;20644;-68
2021/06/02 15:24:54;;;;;;;3.95;2.15;;;;;;;;;;10518959;28;20322;-67
2021/06/02 15:29:58;;;;;;;5.75;2.13;;;;;;;;;;10532246;28;20241;-69
2021/06/02 15:35:00;;;;;;;5.80;3.30;;;;;;;;;;10522258;28;20219;-67
2021/06/02 15:40:04;;;;;;;4.32;2.38;;;;;;;;;;10519898;28;20299;-68
2021/06/02 15:45:09;;;;;;;5.43;2.05;;;;;;;;;;10527690;28;20706;-67
2021/06/02 15:50:12;;;;;;;4.60;2.25;;;;;;;;;;10525216;28;20212;-68
2021/06/02 15:55:15;;;;;;;8.55;2.45;;;;;;;;;;10524645;28;20578;-69
2021/06/02 16:00:19;;;;;;;6.90;2.97;;;;;;;;;;10524467;28;20212;-68
2021/06/02 16:05:22;;;;;;;5.97;2.20;;;;;;;;;;10530493;28;20278;-67
2021/06/02 16:10:24;;;;;;;4.85;2.05;;;;;;;;;;10521592;28;20208;-68
2021/06/02 16:15:28;;;;;;;3.78;2.28;;;;;;;;;;10528283;28;20702;-68
2021/06/02 16:20:30;;;;;;;4.88;2.20;;;;;;;;;;10525081;28;20236;-69
2021/06/02 16:25:32;;;;;;;4.78;2.03;;;;;;;;;;10521214;28;20219;-68
2021/06/02 16:30:38;;;;;;;6.50;3.05;;;;;;;;;;10528713;28;20615;-68
2021/06/02 16:35:41;;;;;;;4.78;2.08;;;;;;;;;;10523053;28;20215;-67
2021/06/02 16:40:43;;;;;;;5.18;2.20;;;;;;;;;;10519207;28;20617;-68
2021/06/02 16:45:47;;;;;;;3.65;2.22;;;;;;;;;;10525337;28;20344;-67
2021/06/02 16:50:49;;;;;;;5.70;2.88;;;;;;;;;;10522092;28;20286;-69
2021/06/02 16:55:52;;;;;;;5.60;2.30;;;;;;;;;;10517501;28;20222;-68
2021/06/02 17:00:56;;;;;;;5.15;3.20;;;;;;;;;;10522570;28;20235;-68
2021/06/02 17:06:03;;;;;;;7.75;4.32;;;;;;;;;;10523004;28;20617;-69
2021/06/02 17:11:05;;;;;;;6.25;2.80;;;;;;;;;;10524035;28;20282;-68
2021/06/02 17:16:10;;;;;;;3.67;2.07;;;;;;;;;;10521372;28;20215;-68
2021/06/02 17:21:14;;;;;;;4.23;2.50;;;;;;;;;;10526247;28;20200;-68
2021/06/02 17:26:17;;;;;;;3.73;2.00;;;;;;;;;;10520248;28;20249;-66
2021/06/02 17:31:21;;;;;;;11.87;7.50;;;;;;;;;;10522289;28;20699;-69
2021/06/02 17:36:24;;;;;;;7.67;3.60;;;;;;;;;;10521133;28;20215;-67
2021/06/02 17:41:26;;;;;;;4.93;2.23;;;;;;;;;;10524119;28;20231;-68
2021/06/02 17:46:30;;;;;;;6.70;3.13;;;;;;;;;;10516571;28;20215;-68
2021/06/02 17:51:37;;;;;;;4.73;2.20;;;;;;;;;;10524057;28;20237;-67
2021/06/02 17:56:41;;;;;;;8.20;4.60;;;;;;;;;;10517275;28;20226;-68
2021/06/02 18:01:45;;;;;;;5.23;2.43;;;;;;;;;;10518778;28;20183;-68
2021/06/02 18:06:47;;;;;;;4.37;2.40;;;;;;;;;;10521674;28;20268;-68
2021/06/02 18:11:49;;;;;;;5.53;2.47;;;;;;;;;;10522603;28;20651;-67
2021/06/02 18:16:56;;;;;;;5.57;2.87;;;;;;;;;;10526936;28;20215;-67
2021/06/02 18:21:59;;;;;;;4.07;2.30;;;;;;;;;;10525349;28;20198;-69
2021/06/02 18:27:01;;;;;;;6.63;3.00;;;;;;;;;;10527208;28;20222;-68
2021/06/02 18:32:07;;;;;;;6.53;2.73;;;;;;;;;;10527134;28;20320;-68
2021/06/02 18:37:09;;;;;;;8.23;3.27;;;;;;;;;;10520488;28;20418;-68
2021/06/02 18:42:12;;;;;;;7.57;2.87;;;;;;;;;;10524987;28;20542;-69
2021/06/02 18:47:15;;;;;;;6.03;3.30;;;;;;;;;;10530966;28;20269;-68
2021/06/02 18:52:17;;;;;;;11.63;6.70;;;;;;;;;;10527531;28;20196;-68
2021/06/02 18:57:19;;;;;;;7.10;3.17;;;;;;;;;;10533425;28;20204;-67
2021/06/02 19:02:23;;;;;;;6.67;3.30;;;;;;;;;;10523889;28;20189;-68
2021/06/02 19:07:25;;;;;;;10.73;5.27;;;;;;;;;;10526627;28;20219;-67
2021/06/02 19:12:28;;;;;;;6.80;3.40;;;;;;;;;;10536688;28;20282;-67
2021/06/02 19:17:31;;;;;;;8.33;3.90;;;;;;;;;;10543038;28;20208;-67
2021/06/02 19:22:34;;;;;;;8.30;4.13;;;;;;;;;;10528503;28;20196;-67
2021/06/02 19:27:37;;;;;;;10.63;4.83;;;;;;;;;;10531974;28;20195;-68
2021/06/02 19:32:41;;;;;;;7.53;3.83;;;;;;;;;;10526417;28;20944;-68
2021/06/02 19:37:48;;;;;;;6.00;2.97;;;;;;;;;;10522717;28;20268;-68
2021/06/02 19:42:51;;;;;;;6.30;3.40;;;;;;;;;;10528064;28;20297;-69
2021/06/02 19:47:59;;;;;;;16.50;11.37;;;;;;;;;;10524056;28;20184;-69
2021/06/02 19:53:01;;;;;;;18.23;12.23;;;;;;;;;;10523685;28;20211;-70
2021/06/02 19:58:03;;;;;;;9.10;5.60;;;;;;;;;;10526272;28;20261;-69
2021/06/02 20:03:07;;;;;;;16.20;9.67;;;;;;;;;;10517350;28;20214;-69
2021/06/02 20:08:12;;;;;;;8.50;4.60;;;;;;;;;;10520442;28;20679;-68
2021/06/02 20:13:15;;;;;;;10.80;5.70;;;;;;;;;;10517932;28;20306;-69
2021/06/02 20:18:18;;;;;;;9.77;4.40;;;;;;;;;;10528722;28;20196;-68
2021/06/02 20:23:20;;;;;;;7.73;4.10;;;;;;;;;;10521146;28;20315;-68
2021/06/02 20:28:33;;;;;;;11.27;4.30;;;;;;;;;;10512638;28;20188;-68
2021/06/02 20:33:38;;;;;;;11.87;6.37;;;;;;;;;;10519307;28;20255;-68
2021/06/02 20:38:40;;;;;;;9.77;5.30;;;;;;;;;;10515859;28;20648;-66
2021/06/02 20:43:42;;;;;;;8.90;4.70;;;;;;;;;;10526935;28;20265;-67
2021/06/02 20:48:45;;;;;;;9.23;5.23;;;;;;;;;;10525065;28;20176;-68
2021/06/02 20:53:47;;;;;;;9.97;5.20;;;;;;;;;;10524434;28;20742;-68
2021/06/02 20:58:50;;;;;;;8.83;4.87;;;;;;;;;;10523855;28;20283;-68
2021/06/02 21:03:53;;;;;;;10.37;5.33;;;;;;;;;;10528519;28;20208;-68
2021/06/02 21:08:55;;;;;;;8.83;4.63;;;;;;;;;;10525890;28;20208;-69
2021/06/02 21:13:57;;;;;;;9.20;5.40;;;;;;;;;;10521477;28;20220;-68
2021/06/02 21:19:01;;;;;;;9.70;5.20;;;;;;;;;;10528199;28;20212;-68
2021/06/02 21:24:03;;;;;;;11.87;7.17;;;;;;;;;;10523686;28;20208;-68
2021/06/02 21:29:05;;;;;;;9.40;5.33;;;;;;;;;;10528807;28;20219;-67
2021/06/02 21:34:09;;;;;;;7.97;4.17;;;;;;;;;;10519545;28;20694;-68
2021/06/02 21:39:11;;;;;;;8.40;4.53;;;;;;;;;;10516111;28;20268;-69
2021/06/02 21:44:14;;;;;;;12.97;6.37;;;;;;;;;;10525747;28;20215;-68
2021/06/02 21:49:17;;;;;;;10.10;5.60;;;;;;;;;;10525373;28;20282;-68
2021/06/02 21:54:19;;;;;;;10.00;5.20;;;;;;;;;;10524900;28;20219;-69
2021/06/02 21:59:21;;;;;;;9.43;6.13;;;;;;;;;;10521514;28;20257;-69
2021/06/02 22:04:25;;;;;;;10.07;5.03;;;;;;;;;;10519517;28;20269;-68
2021/06/02 22:09:30;;;;;;;11.97;5.77;;;;;;;;;;10509455;28;20229;-68
2021/06/02 22:14:32;;;;;;;11.67;6.47;;;;;;;;;;10523094;28;20242;-69
2021/06/02 22:19:35;;;;;;;11.47;5.80;;;;;;;;;;10515895;28;20287;-67
2021/06/02 22:24:37;;;;;;;11.10;5.93;;;;;;;;;;10518663;28;20204;-69
2021/06/02 22:29:39;;;;;;;10.23;5.87;;;;;;;;;;10518610;28;20298;-68
2021/06/02 22:34:43;;;;;;;11.93;6.60;;;;;;;;;;10520663;28;20266;-70
2021/06/02 22:39:45;;;;;;;11.03;6.33;;;;;;;;;;10519020;28;20574;-69
2021/06/02 22:44:47;;;;;;;10.13;6.03;;;;;;;;;;10525940;28;20212;-70
2021/06/02 22:49:50;;;;;;;11.87;5.70;;;;;;;;;;10522214;28;20303;-69
2021/06/02 22:54:52;;;;;;;12.83;6.77;;;;;;;;;;10526001;28;20594;-69
2021/06/02 22:59:54;;;;;;;10.70;6.30;;;;;;;;;;10526364;28;20684;-69
2021/06/02 23:04:58;;;;;;;10.63;6.60;;;;;;;;;;10532249;28;20286;-70
2021/06/02 23:10:03;;;;;;;12.27;6.53;;;;;;;;;;10526405;28;20216;-69
2021/06/02 23:15:06;;;;;;;10.63;6.43;;;;;;;;;;10530535;28;20543;-70
2021/06/02 23:20:11;;;;;;;10.63;6.50;;;;;;;;;;10527188;28;20188;-68
2021/06/02 23:25:13;;;;;;;11.60;6.73;;;;;;;;;;10525716;28;20698;-67
2021/06/02 23:30:17;;;;;;;13.13;6.93;;;;;;;;;;10532175;28;20265;-69
2021/06/02 23:35:21;;;;;;;15.10;6.97;;;;;;;;;;10517328;28;20220;-70
2021/06/02 23:40:23;;;;;;;11.67;6.77;;;;;;;;;;10525710;28;20184;-68
2021/06/02 23:45:26;;;;;;;11.10;6.70;;;;;;;;;;10516867;28;20283;-67
2021/06/02 23:50:31;;;;;;;12.97;6.47;;;;;;;;;;10522613;28;20219;-68
2021/06/02 23:55:33;;;;;;;13.30;6.80;;;;;;;;;;10526789;28;20214;-68
